sensor_id;sensor_type;location;lat;lon;timestamp;P1;durP1;ratioP1;P2;durP2;ratioP2
27566;SDS011;15006;48.584;9.186;2024-03-23T00:52:43;7.75;;;7.05;;
27566;SDS011;15006;48.584;9.186;2024-03-23T00:55:11;6.85;;;6.35;;
27566;SDS011;15006;48.584;9.186;2024-03-23T00:57:37;7.50;;;6.80;;
27566;SDS011;15006;48.584;9.186;2024-03-23T01:00:03;9.82;;;7.22;;
27566;SDS011;15006;48.584;9.186;2024-03-23T01:02:32;7.35;;;6.70;;
27566;SDS011;15006;48.584;9.186;2024-03-23T01:04:58;7.30;;;6.70;;
27566;SDS011;15006;48.584;9.186;2024-03-23T01:07:24;7.20;;;6.53;;
27566;SDS011;15006;48.584;9.186;2024-03-23T01:09:50;6.47;;;5.88;;
27566;SDS011;15006;48.584;9.186;2024-03-23T01:12:17;6.03;;;5.53;;
27566;SDS011;15006;48.584;9.186;2024-03-23T01:14:43;5.70;;;5.20;;
27566;SDS011;15006;48.584;9.186;2024-03-23T01:17:09;5.78;;;5.22;;
27566;SDS011;15006;48.584;9.186;2024-03-23T01:19:35;5.30;;;4.90;;
27566;SDS011;15006;48.584;9.186;2024-03-23T01:22:01;5.25;;;4.78;;
27566;SDS011;15006;48.584;9.186;2024-03-23T01:24:27;4.20;;;3.92;;
27566;SDS011;15006;48.584;9.186;2024-03-23T01:26:53;3.80;;;3.47;;
27566;SDS011;15006;48.584;9.186;2024-03-23T01:29:19;3.72;;;3.42;;
27566;SDS011;15006;48.584;9.186;2024-03-23T01:31:45;5.90;;;3.25;;
27566;SDS011;15006;48.584;9.186;2024-03-23T01:34:11;4.38;;;3.30;;
27566;SDS011;15006;48.584;9.186;2024-03-23T01:36:38;4.10;;;3.90;;
27566;SDS011;15006;48.584;9.186;2024-03-23T01:39:04;3.70;;;3.35;;
27566;SDS011;15006;48.584;9.186;2024-03-23T01:41:30;3.83;;;3.53;;
27566;SDS011;15006;48.584;9.186;2024-03-23T01:43:56;3.72;;;3.50;;
27566;SDS011;15006;48.584;9.186;2024-03-23T01:46:22;5.05;;;3.60;;
27566;SDS011;15006;48.584;9.186;2024-03-23T01:48:48;4.70;;;4.15;;
27566;SDS011;15006;48.584;9.186;2024-03-23T01:51:15;3.90;;;3.60;;
27566;SDS011;15006;48.584;9.186;2024-03-23T01:53:41;3.35;;;3.15;;
27566;SDS011;15006;48.584;9.186;2024-03-23T01:56:07;3.80;;;3.50;;
27566;SDS011;15006;48.584;9.186;2024-03-23T01:58:33;3.67;;;3.40;;
27566;SDS011;15006;48.584;9.186;2024-03-23T02:00:59;3.75;;;3.38;;
27566;SDS011;15006;48.584;9.186;2024-03-23T02:03:26;5.05;;;3.75;;
27566;SDS011;15006;48.584;9.186;2024-03-23T02:05:53;3.72;;;3.50;;
27566;SDS011;15006;48.584;9.186;2024-03-23T02:08:21;3.70;;;3.40;;
27566;SDS011;15006;48.584;9.186;2024-03-23T02:10:48;4.00;;;3.40;;
27566;SDS011;15006;48.584;9.186;2024-03-23T02:13:16;4.10;;;3.35;;
27566;SDS011;15006;48.584;9.186;2024-03-23T02:15:44;3.60;;;3.30;;
27566;SDS011;15006;48.584;9.186;2024-03-23T02:18:10;3.90;;;3.60;;
27566;SDS011;15006;48.584;9.186;2024-03-23T02:20:37;3.47;;;3.17;;
27566;SDS011;15006;48.584;9.186;2024-03-23T02:23:03;3.58;;;3.30;;
27566;SDS011;15006;48.584;9.186;2024-03-23T02:25:31;3.15;;;2.95;;
27566;SDS011;15006;48.584;9.186;2024-03-23T02:27:59;3.25;;;3.05;;
27566;SDS011;15006;48.584;9.186;2024-03-23T02:30:25;4.53;;;3.10;;
27566;SDS011;15006;48.584;9.186;2024-03-23T02:32:52;2.75;;;2.65;;
27566;SDS011;15006;48.584;9.186;2024-03-23T02:35:18;2.60;;;2.50;;
27566;SDS011;15006;48.584;9.186;2024-03-23T02:37:45;3.83;;;2.70;;
27566;SDS011;15006;48.584;9.186;2024-03-23T02:40:14;2.75;;;2.53;;
27566;SDS011;15006;48.584;9.186;2024-03-23T02:42:41;3.50;;;3.20;;
27566;SDS011;15006;48.584;9.186;2024-03-23T02:45:07;5.57;;;3.00;;
27566;SDS011;15006;48.584;9.186;2024-03-23T02:47:33;2.80;;;2.60;;
27566;SDS011;15006;48.584;9.186;2024-03-23T02:49:59;2.75;;;2.50;;
27566;SDS011;15006;48.584;9.186;2024-03-23T02:52:25;2.90;;;2.70;;
27566;SDS011;15006;48.584;9.186;2024-03-23T02:54:51;2.92;;;2.72;;
27566;SDS011;15006;48.584;9.186;2024-03-23T02:57:17;3.00;;;2.80;;
27566;SDS011;15006;48.584;9.186;2024-03-23T02:59:43;3.20;;;2.90;;
27566;SDS011;15006;48.584;9.186;2024-03-23T03:02:09;2.88;;;2.72;;
27566;SDS011;15006;48.584;9.186;2024-03-23T03:04:35;2.83;;;2.60;;
27566;SDS011;15006;48.584;9.186;2024-03-23T03:07:01;4.65;;;2.60;;
27566;SDS011;15006;48.584;9.186;2024-03-23T03:09:27;2.50;;;2.40;;
27566;SDS011;15006;48.584;9.186;2024-03-23T03:11:53;3.58;;;2.38;;
27566;SDS011;15006;48.584;9.186;2024-03-23T03:14:18;2.40;;;2.30;;
27566;SDS011;15006;48.584;9.186;2024-03-23T03:16:45;2.90;;;2.30;;
27566;SDS011;15006;48.584;9.186;2024-03-23T03:19:11;2.30;;;2.20;;
27566;SDS011;15006;48.584;9.186;2024-03-23T03:21:37;2.75;;;2.50;;
27566;SDS011;15006;48.584;9.186;2024-03-23T03:24:03;2.60;;;2.50;;
27566;SDS011;15006;48.584;9.186;2024-03-23T03:26:31;2.40;;;2.30;;
27566;SDS011;15006;48.584;9.186;2024-03-23T03:28:57;2.50;;;2.22;;
27566;SDS011;15006;48.584;9.186;2024-03-23T03:31:23;2.70;;;2.50;;
27566;SDS011;15006;48.584;9.186;2024-03-23T03:33:49;2.72;;;2.47;;
27566;SDS011;15006;48.584;9.186;2024-03-23T03:36:18;2.75;;;2.63;;
27566;SDS011;15006;48.584;9.186;2024-03-23T03:38:45;3.15;;;2.30;;
27566;SDS011;15006;48.584;9.186;2024-03-23T03:41:10;2.08;;;1.98;;
27566;SDS011;15006;48.584;9.186;2024-03-23T03:43:36;2.47;;;2.28;;
27566;SDS011;15006;48.584;9.186;2024-03-23T03:46:03;3.35;;;2.45;;
27566;SDS011;15006;48.584;9.186;2024-03-23T03:48:29;2.40;;;2.30;;
27566;SDS011;15006;48.584;9.186;2024-03-23T03:50:55;2.25;;;2.15;;
27566;SDS011;15006;48.584;9.186;2024-03-23T03:53:21;2.40;;;2.20;;
27566;SDS011;15006;48.584;9.186;2024-03-23T03:55:47;2.40;;;2.30;;
27566;SDS011;15006;48.584;9.186;2024-03-23T03:58:13;2.00;;;1.90;;
27566;SDS011;15006;48.584;9.186;2024-03-23T04:00:39;2.60;;;2.40;;
27566;SDS011;15006;48.584;9.186;2024-03-23T04:03:05;2.28;;;2.17;;
27566;SDS011;15006;48.584;9.186;2024-03-23T04:05:31;3.35;;;2.28;;
27566;SDS011;15006;48.584;9.186;2024-03-23T04:07:58;4.53;;;2.72;;
27566;SDS011;15006;48.584;9.186;2024-03-23T04:10:24;3.25;;;2.35;;
27566;SDS011;15006;48.584;9.186;2024-03-23T04:12:50;2.83;;;2.63;;
27566;SDS011;15006;48.584;9.186;2024-03-23T04:15:16;2.67;;;2.47;;
27566;SDS011;15006;48.584;9.186;2024-03-23T04:17:42;3.13;;;2.90;;
27566;SDS011;15006;48.584;9.186;2024-03-23T04:20:08;3.28;;;3.08;;
27566;SDS011;15006;48.584;9.186;2024-03-23T04:22:39;3.70;;;3.40;;
27566;SDS011;15006;48.584;9.186;2024-03-23T04:25:05;2.55;;;2.45;;
27566;SDS011;15006;48.584;9.186;2024-03-23T04:27:34;3.50;;;3.20;;
27566;SDS011;15006;48.584;9.186;2024-03-23T04:30:01;3.97;;;3.33;;
27566;SDS011;15006;48.584;9.186;2024-03-23T04:32:35;3.60;;;3.40;;
27566;SDS011;15006;48.584;9.186;2024-03-23T04:35:02;3.97;;;3.67;;
27566;SDS011;15006;48.584;9.186;2024-03-23T04:37:34;5.65;;;4.60;;
27566;SDS011;15006;48.584;9.186;2024-03-23T04:40:06;5.32;;;4.80;;
27566;SDS011;15006;48.584;9.186;2024-03-23T04:42:32;6.35;;;5.18;;
27566;SDS011;15006;48.584;9.186;2024-03-23T04:44:59;5.15;;;4.38;;
27566;SDS011;15006;48.584;9.186;2024-03-23T04:47:26;4.82;;;4.43;;
27566;SDS011;15006;48.584;9.186;2024-03-23T04:49:52;4.07;;;3.78;;
27566;SDS011;15006;48.584;9.186;2024-03-23T04:52:18;3.60;;;3.30;;
27566;SDS011;15006;48.584;9.186;2024-03-23T04:54:44;3.85;;;3.65;;
27566;SDS011;15006;48.584;9.186;2024-03-23T04:57:13;3.63;;;3.40;;
27566;SDS011;15006;48.584;9.186;2024-03-23T04:59:39;6.05;;;3.70;;
27566;SDS011;15006;48.584;9.186;2024-03-23T05:02:05;5.13;;;4.00;;
27566;SDS011;15006;48.584;9.186;2024-03-23T05:04:31;4.65;;;3.72;;
27566;SDS011;15006;48.584;9.186;2024-03-23T05:06:57;6.47;;;3.50;;
27566;SDS011;15006;48.584;9.186;2024-03-23T05:09:23;3.20;;;3.00;;
27566;SDS011;15006;48.584;9.186;2024-03-23T05:11:49;3.30;;;3.10;;
27566;SDS011;15006;48.584;9.186;2024-03-23T05:14:15;3.90;;;3.10;;
27566;SDS011;15006;48.584;9.186;2024-03-23T05:16:41;3.35;;;3.08;;
27566;SDS011;15006;48.584;9.186;2024-03-23T05:19:07;4.05;;;3.45;;
27566;SDS011;15006;48.584;9.186;2024-03-23T05:21:33;3.20;;;3.00;;
27566;SDS011;15006;48.584;9.186;2024-03-23T05:23:59;3.30;;;3.10;;
27566;SDS011;15006;48.584;9.186;2024-03-23T05:26:25;4.63;;;4.10;;
27566;SDS011;15006;48.584;9.186;2024-03-23T05:28:51;3.70;;;3.50;;
27566;SDS011;15006;48.584;9.186;2024-03-23T05:31:24;5.80;;;3.65;;
27566;SDS011;15006;48.584;9.186;2024-03-23T05:33:54;5.25;;;4.72;;
27566;SDS011;15006;48.584;9.186;2024-03-23T05:36:20;5.10;;;4.80;;
27566;SDS011;15006;48.584;9.186;2024-03-23T05:38:47;5.90;;;5.40;;
27566;SDS011;15006;48.584;9.186;2024-03-23T05:41:13;6.57;;;5.78;;
27566;SDS011;15006;48.584;9.186;2024-03-23T05:43:39;6.53;;;6.03;;
27566;SDS011;15006;48.584;9.186;2024-03-23T05:46:05;6.45;;;6.05;;
27566;SDS011;15006;48.584;9.186;2024-03-23T05:48:31;7.15;;;6.55;;
27566;SDS011;15006;48.584;9.186;2024-03-23T05:50:57;8.02;;;7.32;;
27566;SDS011;15006;48.584;9.186;2024-03-23T05:53:23;8.30;;;7.60;;
27566;SDS011;15006;48.584;9.186;2024-03-23T05:55:50;8.50;;;7.63;;
27566;SDS011;15006;48.584;9.186;2024-03-23T05:58:19;8.80;;;8.10;;
27566;SDS011;15006;48.584;9.186;2024-03-23T06:00:47;9.32;;;8.52;;
27566;SDS011;15006;48.584;9.186;2024-03-23T06:03:13;8.18;;;7.57;;
27566;SDS011;15006;48.584;9.186;2024-03-23T06:05:39;8.45;;;7.80;;
27566;SDS011;15006;48.584;9.186;2024-03-23T06:08:06;8.20;;;7.60;;
27566;SDS011;15006;48.584;9.186;2024-03-23T06:10:34;8.27;;;7.55;;
27566;SDS011;15006;48.584;9.186;2024-03-23T06:13:00;7.38;;;6.75;;
27566;SDS011;15006;48.584;9.186;2024-03-23T06:15:27;8.00;;;7.32;;
27566;SDS011;15006;48.584;9.186;2024-03-23T06:17:53;7.40;;;6.90;;
27566;SDS011;15006;48.584;9.186;2024-03-23T06:20:19;7.00;;;6.30;;
27566;SDS011;15006;48.584;9.186;2024-03-23T06:22:45;6.80;;;6.30;;
27566;SDS011;15006;48.584;9.186;2024-03-23T06:25:10;6.25;;;5.80;;
27566;SDS011;15006;48.584;9.186;2024-03-23T06:27:38;5.65;;;5.25;;
27566;SDS011;15006;48.584;9.186;2024-03-23T06:30:04;5.60;;;5.18;;
27566;SDS011;15006;48.584;9.186;2024-03-23T06:32:32;4.00;;;3.80;;
27566;SDS011;15006;48.584;9.186;2024-03-23T06:34:57;3.67;;;3.42;;
27566;SDS011;15006;48.584;9.186;2024-03-23T06:37:23;3.13;;;2.92;;
27566;SDS011;15006;48.584;9.186;2024-03-23T06:39:49;3.30;;;3.10;;
27566;SDS011;15006;48.584;9.186;2024-03-23T06:42:15;3.13;;;2.92;;
27566;SDS011;15006;48.584;9.186;2024-03-23T06:44:41;2.47;;;2.38;;
27566;SDS011;15006;48.584;9.186;2024-03-23T06:47:09;1.85;;;1.75;;
27566;SDS011;15006;48.584;9.186;2024-03-23T06:49:35;1.60;;;1.50;;
27566;SDS011;15006;48.584;9.186;2024-03-23T06:52:01;1.50;;;1.42;;
27566;SDS011;15006;48.584;9.186;2024-03-23T06:54:27;1.60;;;1.50;;
27566;SDS011;15006;48.584;9.186;2024-03-23T06:56:53;1.45;;;1.40;;
27566;SDS011;15006;48.584;9.186;2024-03-23T06:59:19;1.35;;;1.23;;
27566;SDS011;15006;48.584;9.186;2024-03-23T07:01:45;1.10;;;1.10;;
27566;SDS011;15006;48.584;9.186;2024-03-23T07:04:11;0.70;;;0.70;;
27566;SDS011;15006;48.584;9.186;2024-03-23T07:06:43;1.05;;;1.00;;
27566;SDS011;15006;48.584;9.186;2024-03-23T07:09:09;0.80;;;0.80;;
27566;SDS011;15006;48.584;9.186;2024-03-23T07:11:35;0.65;;;0.60;;
27566;SDS011;15006;48.584;9.186;2024-03-23T07:14:01;0.50;;;0.50;;
27566;SDS011;15006;48.584;9.186;2024-03-23T07:16:30;1.15;;;0.60;;
27566;SDS011;15006;48.584;9.186;2024-03-23T07:18:56;0.40;;;0.40;;
27566;SDS011;15006;48.584;9.186;2024-03-23T07:21:22;0.30;;;0.30;;
27566;SDS011;15006;48.584;9.186;2024-03-23T07:23:48;0.30;;;0.30;;
27566;SDS011;15006;48.584;9.186;2024-03-23T07:26:14;0.65;;;0.40;;
27566;SDS011;15006;48.584;9.186;2024-03-23T07:28:40;0.40;;;0.40;;
27566;SDS011;15006;48.584;9.186;2024-03-23T07:31:11;0.30;;;0.30;;
27566;SDS011;15006;48.584;9.186;2024-03-23T07:33:43;0.30;;;0.30;;
27566;SDS011;15006;48.584;9.186;2024-03-23T07:36:11;0.30;;;0.30;;
27566;SDS011;15006;48.584;9.186;2024-03-23T07:38:40;0.30;;;0.30;;
27566;SDS011;15006;48.584;9.186;2024-03-23T07:41:08;0.20;;;0.20;;
27566;SDS011;15006;48.584;9.186;2024-03-23T07:43:38;0.50;;;0.30;;
27566;SDS011;15006;48.584;9.186;2024-03-23T07:46:05;0.38;;;0.38;;
27566;SDS011;15006;48.584;9.186;2024-03-23T07:48:31;0.20;;;0.20;;
27566;SDS011;15006;48.584;9.186;2024-03-23T07:53:26;0.20;;;0.20;;
27566;SDS011;15006;48.584;9.186;2024-03-23T07:56:26;0.20;;;0.20;;
27566;SDS011;15006;48.584;9.186;2024-03-23T07:58:46;0.20;;;0.20;;
27566;SDS011;15006;48.584;9.186;2024-03-23T08:01:14;1.08;;;0.20;;
27566;SDS011;15006;48.584;9.186;2024-03-23T08:03:45;0.22;;;0.22;;
27566;SDS011;15006;48.584;9.186;2024-03-23T08:06:12;0.30;;;0.30;;
27566;SDS011;15006;48.584;9.186;2024-03-23T08:08:44;0.30;;;0.30;;
27566;SDS011;15006;48.584;9.186;2024-03-23T08:11:11;0.22;;;0.22;;
27566;SDS011;15006;48.584;9.186;2024-03-23T08:13:38;0.20;;;0.20;;
27566;SDS011;15006;48.584;9.186;2024-03-23T08:16:06;0.20;;;0.20;;
27566;SDS011;15006;48.584;9.186;2024-03-23T08:18:34;0.20;;;0.20;;
27566;SDS011;15006;48.584;9.186;2024-03-23T08:21:04;0.30;;;0.30;;
27566;SDS011;15006;48.584;9.186;2024-03-23T08:23:32;0.30;;;0.30;;
27566;SDS011;15006;48.584;9.186;2024-03-23T08:26:01;0.20;;;0.20;;
27566;SDS011;15006;48.584;9.186;2024-03-23T08:28:29;2.10;;;0.28;;
27566;SDS011;15006;48.584;9.186;2024-03-23T08:30:56;1.25;;;0.35;;
27566;SDS011;15006;48.584;9.186;2024-03-23T08:33:22;0.30;;;0.30;;
27566;SDS011;15006;48.584;9.186;2024-03-23T08:35:56;0.93;;;0.57;;
27566;SDS011;15006;48.584;9.186;2024-03-23T08:38:24;0.88;;;0.70;;
27566;SDS011;15006;48.584;9.186;2024-03-23T08:41:02;1.15;;;0.50;;
27566;SDS011;15006;48.584;9.186;2024-03-23T08:43:33;0.75;;;0.50;;
27566;SDS011;15006;48.584;9.186;2024-03-23T08:46:06;1.40;;;0.50;;
27566;SDS011;15006;48.584;9.186;2024-03-23T08:48:37;0.50;;;0.50;;
27566;SDS011;15006;48.584;9.186;2024-03-23T08:51:12;0.95;;;0.50;;
27566;SDS011;15006;48.584;9.186;2024-03-23T08:53:39;1.80;;;0.90;;
27566;SDS011;15006;48.584;9.186;2024-03-23T08:56:06;1.45;;;0.90;;
27566;SDS011;15006;48.584;9.186;2024-03-23T08:58:34;1.00;;;1.00;;
27566;SDS011;15006;48.584;9.186;2024-03-23T09:01:05;2.80;;;1.15;;
27566;SDS011;15006;48.584;9.186;2024-03-23T09:03:37;1.15;;;1.00;;
27566;SDS011;15006;48.584;9.186;2024-03-23T09:06:07;1.90;;;1.13;;
27566;SDS011;15006;48.584;9.186;2024-03-23T09:08:38;2.13;;;1.42;;
27566;SDS011;15006;48.584;9.186;2024-03-23T09:11:14;3.00;;;1.48;;
27566;SDS011;15006;48.584;9.186;2024-03-23T09:13:40;3.30;;;1.85;;
27566;SDS011;15006;48.584;9.186;2024-03-23T09:16:09;1.92;;;1.17;;
27566;SDS011;15006;48.584;9.186;2024-03-23T09:18:35;3.50;;;1.70;;
27566;SDS011;15006;48.584;9.186;2024-03-23T09:21:02;3.70;;;2.10;;
27566;SDS011;15006;48.584;9.186;2024-03-23T09:23:43;3.50;;;2.10;;
27566;SDS011;15006;48.584;9.186;2024-03-23T09:26:09;3.15;;;1.90;;
27566;SDS011;15006;48.584;9.186;2024-03-23T09:28:35;4.47;;;2.63;;
27566;SDS011;15006;48.584;9.186;2024-03-23T09:31:04;2.72;;;2.00;;
27566;SDS011;15006;48.584;9.186;2024-03-23T09:33:39;3.63;;;3.30;;
27566;SDS011;15006;48.584;9.186;2024-03-23T09:36:05;6.95;;;4.75;;
27566;SDS011;15006;48.584;9.186;2024-03-23T09:38:33;7.25;;;5.35;;
27566;SDS011;15006;48.584;9.186;2024-03-23T09:40:59;3.30;;;3.00;;
27566;SDS011;15006;48.584;9.186;2024-03-23T09:43:26;4.63;;;2.45;;
27566;SDS011;15006;48.584;9.186;2024-03-23T09:45:52;2.72;;;2.10;;
27566;SDS011;15006;48.584;9.186;2024-03-23T09:48:18;6.78;;;3.50;;
27566;SDS011;15006;48.584;9.186;2024-03-23T09:50:45;4.90;;;2.40;;
27566;SDS011;15006;48.584;9.186;2024-03-23T09:53:11;3.67;;;2.30;;
27566;SDS011;15006;48.584;9.186;2024-03-23T09:55:42;4.15;;;2.67;;
27566;SDS011;15006;48.584;9.186;2024-03-23T09:58:14;5.72;;;2.50;;
27566;SDS011;15006;48.584;9.186;2024-03-23T10:01:01;4.50;;;3.00;;
27566;SDS011;15006;48.584;9.186;2024-03-23T10:03:28;2.80;;;2.25;;
27566;SDS011;15006;48.584;9.186;2024-03-23T10:06:01;3.65;;;2.50;;
27566;SDS011;15006;48.584;9.186;2024-03-23T10:08:28;3.58;;;2.55;;
27566;SDS011;15006;48.584;9.186;2024-03-23T10:10:55;3.55;;;2.72;;
27566;SDS011;15006;48.584;9.186;2024-03-23T10:13:27;3.17;;;2.75;;
27566;SDS011;15006;48.584;9.186;2024-03-23T10:15:57;3.58;;;2.83;;
27566;SDS011;15006;48.584;9.186;2024-03-23T10:18:24;5.13;;;3.13;;
27566;SDS011;15006;48.584;9.186;2024-03-23T10:23:31;7.95;;;3.30;;
27566;SDS011;15006;48.584;9.186;2024-03-23T10:26:15;6.05;;;3.40;;
27566;SDS011;15006;48.584;9.186;2024-03-23T10:31:31;4.05;;;2.88;;
27566;SDS011;15006;48.584;9.186;2024-03-23T10:33:57;6.88;;;2.95;;
27566;SDS011;15006;48.584;9.186;2024-03-23T10:36:24;5.85;;;2.90;;
27566;SDS011;15006;48.584;9.186;2024-03-23T10:38:53;5.55;;;2.67;;
27566;SDS011;15006;48.584;9.186;2024-03-23T10:41:20;4.47;;;2.63;;
27566;SDS011;15006;48.584;9.186;2024-03-23T10:46:48;4.90;;;3.10;;
27566;SDS011;15006;48.584;9.186;2024-03-23T10:49:15;3.88;;;2.55;;
27566;SDS011;15006;48.584;9.186;2024-03-23T10:51:41;5.47;;;2.30;;
27566;SDS011;15006;48.584;9.186;2024-03-23T10:54:07;3.78;;;2.63;;
27566;SDS011;15006;48.584;9.186;2024-03-23T10:59:05;5.00;;;2.70;;
27566;SDS011;15006;48.584;9.186;2024-03-23T11:01:32;4.88;;;2.03;;
27566;SDS011;15006;48.584;9.186;2024-03-23T11:03:58;2.78;;;1.70;;
27566;SDS011;15006;48.584;9.186;2024-03-23T11:06:34;2.33;;;1.65;;
27566;SDS011;15006;48.584;9.186;2024-03-23T11:09:02;1.02;;;0.88;;
27566;SDS011;15006;48.584;9.186;2024-03-23T11:11:28;3.47;;;1.60;;
27566;SDS011;15006;48.584;9.186;2024-03-23T11:13:57;1.95;;;1.40;;
27566;SDS011;15006;48.584;9.186;2024-03-23T11:16:26;1.65;;;1.40;;
27566;SDS011;15006;48.584;9.186;2024-03-23T11:19:33;2.03;;;1.83;;
27566;SDS011;15006;48.584;9.186;2024-03-23T11:22:04;2.17;;;1.33;;
27566;SDS011;15006;48.584;9.186;2024-03-23T11:24:31;6.43;;;1.83;;
27566;SDS011;15006;48.584;9.186;2024-03-23T11:26:57;2.97;;;1.75;;
27566;SDS011;15006;48.584;9.186;2024-03-23T11:29:29;1.83;;;1.45;;
27566;SDS011;15006;48.584;9.186;2024-03-23T11:31:56;2.90;;;1.48;;
27566;SDS011;15006;48.584;9.186;2024-03-23T11:34:22;2.25;;;1.20;;
27566;SDS011;15006;48.584;9.186;2024-03-23T11:36:48;1.75;;;1.50;;
27566;SDS011;15006;48.584;9.186;2024-03-23T11:39:16;4.22;;;1.83;;
27566;SDS011;15006;48.584;9.186;2024-03-23T11:41:48;2.53;;;1.20;;
27566;SDS011;15006;48.584;9.186;2024-03-23T11:44:18;4.72;;;1.48;;
27566;SDS011;15006;48.584;9.186;2024-03-23T11:46:46;4.22;;;1.10;;
27566;SDS011;15006;48.584;9.186;2024-03-23T11:49:27;5.13;;;1.50;;
27566;SDS011;15006;48.584;9.186;2024-03-23T11:51:55;3.50;;;1.65;;
27566;SDS011;15006;48.584;9.186;2024-03-23T11:54:25;2.40;;;1.30;;
27566;SDS011;15006;48.584;9.186;2024-03-23T11:57:05;2.53;;;0.90;;
27566;SDS011;15006;48.584;9.186;2024-03-23T11:59:34;2.90;;;1.27;;
27566;SDS011;15006;48.584;9.186;2024-03-23T12:02:10;3.75;;;1.50;;
27566;SDS011;15006;48.584;9.186;2024-03-23T12:04:39;5.85;;;1.10;;
27566;SDS011;15006;48.584;9.186;2024-03-23T12:07:11;2.92;;;1.30;;
27566;SDS011;15006;48.584;9.186;2024-03-23T12:09:44;4.80;;;1.73;;
27566;SDS011;15006;48.584;9.186;2024-03-23T12:12:17;4.82;;;1.60;;
27566;SDS011;15006;48.584;9.186;2024-03-23T12:14:44;6.32;;;1.60;;
27566;SDS011;15006;48.584;9.186;2024-03-23T12:17:14;3.83;;;1.40;;
27566;SDS011;15006;48.584;9.186;2024-03-23T12:19:41;7.30;;;1.73;;
27566;SDS011;15006;48.584;9.186;2024-03-23T12:22:08;7.63;;;2.05;;
27566;SDS011;15006;48.584;9.186;2024-03-23T12:24:34;4.60;;;1.80;;
27566;SDS011;15006;48.584;9.186;2024-03-23T12:27:04;7.40;;;2.15;;
27566;SDS011;15006;48.584;9.186;2024-03-23T12:29:30;5.90;;;1.80;;
27566;SDS011;15006;48.584;9.186;2024-03-23T12:32:00;4.03;;;1.95;;
27566;SDS011;15006;48.584;9.186;2024-03-23T12:34:28;6.05;;;1.85;;
27566;SDS011;15006;48.584;9.186;2024-03-23T12:36:56;4.97;;;2.10;;
27566;SDS011;15006;48.584;9.186;2024-03-23T12:39:22;4.78;;;1.98;;
27566;SDS011;15006;48.584;9.186;2024-03-23T12:41:48;6.50;;;2.60;;
27566;SDS011;15006;48.584;9.186;2024-03-23T12:44:22;7.25;;;2.47;;
27566;SDS011;15006;48.584;9.186;2024-03-23T12:46:47;4.30;;;2.50;;
27566;SDS011;15006;48.584;9.186;2024-03-23T12:49:14;3.53;;;2.10;;
27566;SDS011;15006;48.584;9.186;2024-03-23T12:51:45;3.45;;;2.10;;
27566;SDS011;15006;48.584;9.186;2024-03-23T12:54:20;2.90;;;1.85;;
27566;SDS011;15006;48.584;9.186;2024-03-23T12:56:47;3.95;;;2.53;;
27566;SDS011;15006;48.584;9.186;2024-03-23T12:59:13;3.65;;;2.10;;
27566;SDS011;15006;48.584;9.186;2024-03-23T13:01:39;2.78;;;1.90;;
27566;SDS011;15006;48.584;9.186;2024-03-23T13:04:05;4.63;;;2.38;;
27566;SDS011;15006;48.584;9.186;2024-03-23T13:06:31;4.10;;;1.92;;
27566;SDS011;15006;48.584;9.186;2024-03-23T13:09:02;4.82;;;1.95;;
27566;SDS011;15006;48.584;9.186;2024-03-23T13:11:28;2.78;;;1.60;;
27566;SDS011;15006;48.584;9.186;2024-03-23T13:13:55;2.80;;;1.70;;
27566;SDS011;15006;48.584;9.186;2024-03-23T13:16:21;1.98;;;1.75;;
27566;SDS011;15006;48.584;9.186;2024-03-23T13:18:47;2.22;;;1.73;;
27566;SDS011;15006;48.584;9.186;2024-03-23T13:21:13;1.70;;;1.60;;
27566;SDS011;15006;48.584;9.186;2024-03-23T13:23:40;5.25;;;1.70;;
27566;SDS011;15006;48.584;9.186;2024-03-23T13:26:07;1.80;;;1.33;;
27566;SDS011;15006;48.584;9.186;2024-03-23T13:28:33;2.55;;;1.90;;
27566;SDS011;15006;48.584;9.186;2024-03-23T13:31:01;3.97;;;1.92;;
27566;SDS011;15006;48.584;9.186;2024-03-23T13:33:32;2.47;;;1.42;;
27566;SDS011;15006;48.584;9.186;2024-03-23T13:35:58;2.20;;;1.40;;
27566;SDS011;15006;48.584;9.186;2024-03-23T13:38:24;2.72;;;1.33;;
27566;SDS011;15006;48.584;9.186;2024-03-23T13:40:58;1.83;;;0.90;;
27566;SDS011;15006;48.584;9.186;2024-03-23T13:43:26;2.55;;;1.00;;
27566;SDS011;15006;48.584;9.186;2024-03-23T13:45:54;6.13;;;1.00;;
27566;SDS011;15006;48.584;9.186;2024-03-23T13:48:22;1.52;;;0.75;;
27566;SDS011;15006;48.584;9.186;2024-03-23T13:50:59;0.93;;;0.60;;
27566;SDS011;15006;48.584;9.186;2024-03-23T13:53:27;2.40;;;0.90;;
27566;SDS011;15006;48.584;9.186;2024-03-23T13:55:53;2.83;;;0.90;;
27566;SDS011;15006;48.584;9.186;2024-03-23T13:58:19;1.67;;;1.02;;
27566;SDS011;15006;48.584;9.186;2024-03-23T14:00:45;3.33;;;1.23;;
27566;SDS011;15006;48.584;9.186;2024-03-23T14:03:12;1.90;;;1.00;;
27566;SDS011;15006;48.584;9.186;2024-03-23T14:05:39;2.38;;;1.10;;
27566;SDS011;15006;48.584;9.186;2024-03-23T14:08:09;1.75;;;1.20;;
27566;SDS011;15006;48.584;9.186;2024-03-23T14:10:36;1.55;;;0.93;;
27566;SDS011;15006;48.584;9.186;2024-03-23T14:13:07;4.15;;;1.50;;
27566;SDS011;15006;48.584;9.186;2024-03-23T14:15:33;1.98;;;0.70;;
27566;SDS011;15006;48.584;9.186;2024-03-23T14:17:59;4.03;;;1.00;;
27566;SDS011;15006;48.584;9.186;2024-03-23T14:20:25;1.63;;;0.95;;
27566;SDS011;15006;48.584;9.186;2024-03-23T14:22:52;2.72;;;0.90;;
27566;SDS011;15006;48.584;9.186;2024-03-23T14:25:18;1.67;;;0.90;;
27566;SDS011;15006;48.584;9.186;2024-03-23T14:27:45;2.33;;;0.80;;
27566;SDS011;15006;48.584;9.186;2024-03-23T14:30:12;3.63;;;0.80;;
27566;SDS011;15006;48.584;9.186;2024-03-23T14:32:39;2.15;;;0.93;;
27566;SDS011;15006;48.584;9.186;2024-03-23T14:35:05;1.83;;;0.95;;
27566;SDS011;15006;48.584;9.186;2024-03-23T14:37:38;1.65;;;0.50;;
27566;SDS011;15006;48.584;9.186;2024-03-23T14:40:07;1.80;;;0.90;;
27566;SDS011;15006;48.584;9.186;2024-03-23T14:42:34;2.30;;;0.90;;
27566;SDS011;15006;48.584;9.186;2024-03-23T14:45:00;1.45;;;0.90;;
27566;SDS011;15006;48.584;9.186;2024-03-23T14:47:26;2.40;;;0.82;;
27566;SDS011;15006;48.584;9.186;2024-03-23T14:49:52;2.50;;;0.95;;
27566;SDS011;15006;48.584;9.186;2024-03-23T14:52:18;3.83;;;1.33;;
27566;SDS011;15006;48.584;9.186;2024-03-23T14:54:45;2.15;;;1.02;;
27566;SDS011;15006;48.584;9.186;2024-03-23T14:57:12;2.22;;;1.00;;
27566;SDS011;15006;48.584;9.186;2024-03-23T14:59:38;1.30;;;0.88;;
27566;SDS011;15006;48.584;9.186;2024-03-23T15:02:06;3.40;;;1.20;;
27566;SDS011;15006;48.584;9.186;2024-03-23T15:04:33;4.45;;;0.90;;
27566;SDS011;15006;48.584;9.186;2024-03-23T15:06:59;2.10;;;0.90;;
27566;SDS011;15006;48.584;9.186;2024-03-23T15:09:26;1.83;;;0.88;;
27566;SDS011;15006;48.584;9.186;2024-03-23T15:11:52;1.17;;;0.80;;
27566;SDS011;15006;48.584;9.186;2024-03-23T15:14:20;0.70;;;0.70;;
27566;SDS011;15006;48.584;9.186;2024-03-23T15:16:46;1.00;;;0.85;;
27566;SDS011;15006;48.584;9.186;2024-03-23T15:19:14;2.60;;;0.60;;
27566;SDS011;15006;48.584;9.186;2024-03-23T15:21:42;1.38;;;0.60;;
27566;SDS011;15006;48.584;9.186;2024-03-23T15:24:09;2.20;;;0.70;;
27566;SDS011;15006;48.584;9.186;2024-03-23T15:26:40;0.90;;;0.80;;
27566;SDS011;15006;48.584;9.186;2024-03-23T15:29:07;0.93;;;0.60;;
27566;SDS011;15006;48.584;9.186;2024-03-23T15:31:37;0.65;;;0.60;;
27566;SDS011;15006;48.584;9.186;2024-03-23T15:34:03;1.55;;;0.40;;
27566;SDS011;15006;48.584;9.186;2024-03-23T15:36:30;1.55;;;0.70;;
27566;SDS011;15006;48.584;9.186;2024-03-23T15:38:56;0.75;;;0.50;;
27566;SDS011;15006;48.584;9.186;2024-03-23T15:41:22;0.90;;;0.57;;
27566;SDS011;15006;48.584;9.186;2024-03-23T15:43:49;1.08;;;0.80;;
27566;SDS011;15006;48.584;9.186;2024-03-23T15:46:16;1.73;;;0.60;;
27566;SDS011;15006;48.584;9.186;2024-03-23T15:48:44;1.30;;;0.70;;
27566;SDS011;15006;48.584;9.186;2024-03-23T15:51:14;1.35;;;0.90;;
27566;SDS011;15006;48.584;9.186;2024-03-23T15:53:40;0.98;;;0.70;;
27566;SDS011;15006;48.584;9.186;2024-03-23T15:56:06;2.33;;;0.65;;